Time;durP1;ratioP1;P1;durP2;ratioP2;P2;SDS_P1;SDS_P2;PMS_P1;PMS_P2;Temp;Humidity;BMP_temperature;BMP_pressure;BME280_temperature;BME280_humidity;BME280_pressure;Samples;Min_cycle;Max_cycle;Signal;HPM_P1;HPM_P2
2023/05/14 04:02:08;;;;;;;3.20;2.90;;;14.40;81.90;;;;;;5335713;22;20546;-77
2023/05/14 04:04:35;;;;;;;3.73;3.43;;;14.40;81.80;;;;;;5032682;28;20995;-77
2023/05/14 04:07:01;;;;;;;4.03;3.60;;;14.40;81.70;;;;;;5033537;28;20454;-77
2023/05/14 04:09:28;;;;;;;3.60;3.30;;;14.50;81.70;;;;;;5033442;28;20454;-77
2023/05/14 04:11:55;;;;;;;3.30;3.00;;;14.50;81.60;;;;;;5033416;28;20468;-78
2023/05/14 04:14:21;;;;;;;3.47;3.17;;;14.50;81.60;;;;;;5033439;28;20444;-76
2023/05/14 04:16:48;;;;;;;4.00;3.70;;;14.50;81.60;;;;;;5034016;28;20448;-76
2023/05/14 04:19:16;;;;;;;3.73;3.43;;;14.40;81.70;;;;;;5033389;28;20506;-77
2023/05/14 04:21:42;;;;;;;3.53;3.23;;;14.40;82.50;;;;;;5033271;28;20467;-77
2023/05/14 04:24:09;;;;;;;3.33;3.03;;;14.40;82.00;;;;;;5033233;28;20518;-77
2023/05/14 04:26:36;;;;;;;2.90;2.70;;;14.50;81.90;;;;;;5033347;28;20455;-77
2023/05/14 04:29:02;;;;;;;4.00;3.70;;;14.50;81.50;;;;;;5033483;28;20455;-76
2023/05/14 04:31:30;;;;;;;3.53;3.17;;;14.60;81.50;;;;;;5033173;28;20471;-77
2023/05/14 04:33:57;;;;;;;5.53;3.40;;;14.60;81.40;;;;;;5033283;28;20546;-76
2023/05/14 04:36:25;;;;;;;3.30;3.00;;;14.50;81.50;;;;;;5033197;28;20463;-77
2023/05/14 04:38:51;;;;;;;3.77;3.17;;;14.50;81.30;;;;;;5033206;28;20869;-77
2023/05/14 04:41:18;;;;;;;3.47;3.17;;;14.60;81.30;;;;;;5033099;28;20518;-77
2023/05/14 04:43:45;;;;;;;3.40;3.10;;;14.60;81.20;;;;;;5033024;28;20530;-76
2023/05/14 04:46:12;;;;;;;4.20;3.90;;;14.60;81.10;;;;;;5033158;28;20539;-77
2023/05/14 04:48:39;;;;;;;4.07;3.70;;;14.60;81.10;;;;;;5033110;28;20543;-76
2023/05/14 04:51:06;;;;;;;3.27;2.97;;;14.60;81.00;;;;;;5033035;28;20463;-77
2023/05/14 04:53:34;;;;;;;3.20;2.90;;;14.60;81.10;;;;;;5033260;28;20538;-76
2023/05/14 04:56:00;;;;;;;3.50;3.20;;;14.60;81.10;;;;;;5033726;28;20448;-78
2023/05/14 04:58:28;;;;;;;3.00;2.70;;;14.60;81.30;;;;;;5032968;28;20451;-76
2023/05/14 05:00:54;;;;;;;3.47;3.17;;;14.60;81.30;;;;;;5032738;28;20999;-77
2023/05/14 05:03:21;;;;;;;3.73;3.43;;;14.60;81.20;;;;;;5032957;28;20471;-77
2023/05/14 05:05:48;;;;;;;3.60;3.30;;;14.60;81.20;;;;;;5032936;28;20459;-77
2023/05/14 05:08:14;;;;;;;3.90;3.50;;;14.70;81.20;;;;;;5032949;28;20513;-77
2023/05/14 05:10:42;;;;;;;4.20;3.80;;;14.70;81.20;;;;;;5032862;28;20467;-77
2023/05/14 05:13:09;;;;;;;3.30;3.00;;;14.70;81.10;;;;;;5032869;28;20443;-77
2023/05/14 05:15:36;;;;;;;3.70;3.40;;;14.70;81.20;;;;;;5033058;28;20538;-77
2023/05/14 05:18:02;;;;;;;3.37;3.07;;;14.70;81.30;;;;;;5035116;28;20500;-77
2023/05/14 05:20:29;;;;;;;3.73;3.43;;;14.80;81.10;;;;;;5036187;28;20452;-77
2023/05/14 05:22:56;;;;;;;3.67;3.37;;;14.80;81.10;;;;;;5036476;28;20478;-77
2023/05/14 05:25:23;;;;;;;3.30;3.00;;;14.70;80.90;;;;;;5036559;28;20534;-77
2023/05/14 05:27:51;;;;;;;3.47;3.17;;;14.60;81.00;;;;;;5036474;28;20527;-76
2023/05/14 05:30:18;;;;;;;3.93;3.50;;;14.60;81.00;;;;;;5036359;28;20447;-77
2023/05/14 05:32:45;;;;;;;3.33;2.87;;;14.60;81.10;;;;;;5037105;28;20467;-77
2023/05/14 05:35:11;;;;;;;3.20;2.90;;;14.60;80.90;;;;;;5036321;28;20447;-77
2023/05/14 05:37:38;;;;;;;2.73;2.50;;;14.60;81.00;;;;;;5036228;28;20440;-77
2023/05/14 05:40:06;;;;;;;3.10;2.87;;;14.60;80.80;;;;;;5036219;28;20481;-77
2023/05/14 05:42:33;;;;;;;3.40;3.00;;;14.70;80.90;;;;;;5036123;28;20486;-77
2023/05/14 05:45:01;;;;;;;3.00;2.70;;;14.80;80.80;;;;;;5035707;28;21015;-77
2023/05/14 05:47:28;;;;;;;3.77;3.47;;;14.70;80.70;;;;;;5036106;28;20815;-77
2023/05/14 05:49:55;;;;;;;4.37;3.67;;;14.60;80.80;;;;;;5035992;28;20459;-77
2023/05/14 05:52:22;;;;;;;3.00;2.70;;;14.60;81.00;;;;;;5036038;28;20467;-78
2023/05/14 05:54:49;;;;;;;3.43;3.13;;;14.50;81.20;;;;;;5036010;28;20490;-77
2023/05/14 05:57:16;;;;;;;3.20;2.83;;;14.40;81.60;;;;;;5036374;28;20456;-77
2023/05/14 05:59:42;;;;;;;3.27;2.97;;;14.40;81.70;;;;;;5035886;28;20458;-77
2023/05/14 06:02:10;;;;;;;4.30;3.70;;;14.50;81.40;;;;;;5035622;28;20479;-77
2023/05/14 06:04:37;;;;;;;3.20;2.90;;;14.50;81.40;;;;;;5035671;28;20517;-77
2023/05/14 06:07:04;;;;;;;3.70;3.40;;;14.50;81.40;;;;;;5035729;28;20447;-77
2023/05/14 06:09:31;;;;;;;3.67;3.37;;;14.60;81.20;;;;;;5035660;28;20447;-77
2023/05/14 06:11:57;;;;;;;3.70;3.40;;;14.50;81.40;;;;;;5035539;28;20529;-77
2023/05/14 06:14:24;;;;;;;3.83;3.53;;;14.50;81.20;;;;;;5035519;28;20494;-77
2023/05/14 06:16:51;;;;;;;4.90;4.10;;;14.50;81.20;;;;;;5035763;28;20444;-76
2023/05/14 06:19:19;;;;;;;3.80;3.50;;;14.40;81.70;;;;;;5035495;28;20795;-77
2023/05/14 06:21:46;;;;;;;4.37;3.97;;;14.50;81.50;;;;;;5035014;28;20479;-76
2023/05/14 06:24:13;;;;;;;3.93;3.57;;;14.40;81.70;;;;;;5035227;28;20483;-76
2023/05/14 06:26:39;;;;;;;4.33;3.93;;;14.40;82.20;;;;;;5035366;28;20538;-77
2023/05/14 06:29:06;;;;;;;11.67;4.70;;;14.40;81.80;;;;;;5034933;28;20450;-76
2023/05/14 06:31:33;;;;;;;4.90;4.50;;;14.60;81.50;;;;;;5035042;28;20471;-76
2023/05/14 06:33:59;;;;;;;4.37;3.97;;;14.70;81.40;;;;;;5035218;28;20477;-77
2023/05/14 06:36:27;;;;;;;4.10;3.70;;;14.80;80.80;;;;;;5035112;28;20447;-77
2023/05/14 06:38:54;;;;;;;4.57;4.17;;;14.80;80.90;;;;;;5035137;28;20517;-77
2023/05/14 06:41:21;;;;;;;3.63;3.33;;;14.80;80.90;;;;;;5035031;28;20494;-77
2023/05/14 06:43:48;;;;;;;4.27;3.87;;;14.90;80.80;;;;;;5034640;28;20522;-77
2023/05/14 06:46:15;;;;;;;3.23;2.83;;;14.90;80.70;;;;;;5034913;28;20463;-77
2023/05/14 06:48:41;;;;;;;4.33;3.93;;;14.90;81.30;;;;;;5034884;28;20448;-77
2023/05/14 06:51:09;;;;;;;3.77;3.40;;;14.90;80.50;;;;;;5034801;28;20468;-77
2023/05/14 06:53:37;;;;;;;3.50;3.20;;;15.00;80.30;;;;;;5034761;28;20439;-77
2023/05/14 06:56:04;;;;;;;3.50;3.20;;;15.10;80.20;;;;;;5034840;28;20885;-77
2023/05/14 06:58:31;;;;;;;4.30;3.90;;;15.20;80.10;;;;;;5034721;28;20447;-77
2023/05/14 07:00:58;;;;;;;3.97;3.57;;;15.10;79.80;;;;;;5034507;28;20490;-77
2023/05/14 07:03:24;;;;;;;4.00;3.70;;;15.10;80.10;;;;;;5034503;28;20501;-77
2023/05/14 07:05:51;;;;;;;4.13;3.73;;;15.10;80.00;;;;;;5034537;28;20517;-77
2023/05/14 07:08:18;;;;;;;4.30;3.90;;;15.20;79.40;;;;;;5034533;28;20538;-76
2023/05/14 07:10:46;;;;;;;3.70;3.40;;;15.30;79.40;;;;;;5034394;28;20518;-77
2023/05/14 07:13:12;;;;;;;4.27;3.87;;;15.30;79.10;;;;;;5034619;28;20447;-76
2023/05/14 07:15:39;;;;;;;3.53;3.23;;;15.30;78.70;;;;;;5034324;28;20506;-77
2023/05/14 07:18:06;;;;;;;3.67;3.37;;;15.40;79.20;;;;;;5034362;28;20456;-77
2023/05/14 07:20:32;;;;;;;4.40;3.67;;;15.30;79.20;;;;;;5034394;28;20451;-78
2023/05/14 07:22:59;;;;;;;4.30;3.90;;;15.40;79.30;;;;;;5034305;28;20507;-76
2023/05/14 07:25:26;;;;;;;4.27;3.87;;;15.50;79.10;;;;;;5034124;28;21008;-76
2023/05/14 07:27:54;;;;;;;3.60;3.30;;;15.50;79.00;;;;;;5034349;28;20448;-77
2023/05/14 07:30:21;;;;;;;4.57;3.20;;;15.60;79.10;;;;;;5034281;28;20451;-78
2023/05/14 07:32:47;;;;;;;3.53;3.23;;;15.60;78.50;;;;;;5034206;28;20450;-77
2023/05/14 07:35:14;;;;;;;3.90;3.50;;;15.60;78.90;;;;;;5034056;28;20436;-78
2023/05/14 07:37:41;;;;;;;3.37;3.07;;;15.80;78.90;;;;;;5034447;28;20446;-78
2023/05/14 07:40:09;;;;;;;3.87;3.57;;;15.70;78.50;;;;;;5033163;28;20920;-76
2023/05/14 07:42:35;;;;;;;3.87;3.57;;;15.40;79.30;;;;;;5033954;28;20891;-76
2023/05/14 07:45:04;;;;;;;4.73;4.33;;;15.20;80.60;;;;;;5033891;28;20479;-76
2023/05/14 07:47:31;;;;;;;3.93;3.57;;;15.50;80.00;;;;;;5033889;28;20451;-76
2023/05/14 07:49:58;;;;;;;4.30;3.90;;;15.60;79.50;;;;;;5033550;28;20459;-76
2023/05/14 07:52:24;;;;;;;4.30;3.60;;;15.50;79.10;;;;;;5033767;28;20518;-76
2023/05/14 07:54:51;;;;;;;4.10;3.73;;;15.70;79.10;;;;;;5033472;28;20866;-76
2023/05/14 07:57:18;;;;;;;4.03;3.73;;;15.60;79.40;;;;;;5033799;28;20447;-76
2023/05/14 07:59:45;;;;;;;4.33;3.93;;;15.30;80.00;;;;;;5033681;28;20452;-77
2023/05/14 08:02:14;;;;;;;4.40;4.00;;;15.60;80.10;;;;;;5033346;28;21015;-76
2023/05/14 08:04:41;;;;;;;4.53;4.13;;;15.80;79.20;;;;;;5034411;28;20570;-76
2023/05/14 08:07:08;;;;;;;3.73;3.43;;;16.10;78.50;;;;;;5033607;28;20443;-76
2023/05/14 08:09:34;;;;;;;3.53;3.23;;;16.20;77.60;;;;;;5033540;28;20443;-76
2023/05/14 08:12:01;;;;;;;3.67;3.37;;;16.40;77.20;;;;;;5033148;28;21046;-76
2023/05/14 08:14:28;;;;;;;4.43;4.03;;;16.50;76.90;;;;;;5033499;28;20448;-78
2023/05/14 08:16:55;;;;;;;3.87;3.30;;;16.70;76.70;;;;;;5033456;28;20534;-78
2023/05/14 08:19:23;;;;;;;3.70;3.40;;;16.80;77.00;;;;;;5033422;28;20999;-76
2023/05/14 08:21:50;;;;;;;4.00;3.60;;;17.00;75.40;;;;;;5033475;28;20554;-76
2023/05/14 08:24:16;;;;;;;3.83;3.27;;;17.00;75.00;;;;;;5033253;28;20533;-77
2023/05/14 08:26:43;;;;;;;3.90;3.60;;;17.10;74.60;;;;;;5033232;28;20451;-76
2023/05/14 08:29:10;;;;;;;3.97;3.57;;;17.10;74.60;;;;;;5033240;28;20450;-75
2023/05/14 08:31:36;;;;;;;3.40;3.10;;;17.30;74.10;;;;;;5033120;28;20529;-77
2023/05/14 08:34:03;;;;;;;3.50;3.20;;;17.30;74.00;;;;;;5033193;28;20448;-77
2023/05/14 08:36:31;;;;;;;3.80;3.50;;;17.40;74.30;;;;;;5033242;28;20443;-77
2023/05/14 08:38:58;;;;;;;4.40;4.00;;;17.50;74.50;;;;;;5033239;28;20538;-75
2023/05/14 08:41:25;;;;;;;3.50;3.20;;;17.50;74.60;;;;;;5033164;28;20461;-76
2023/05/14 08:43:59;;;;;;;3.30;3.00;;;17.60;73.20;;;;;;5032762;28;20964;-77
2023/05/14 08:46:29;;;;;;;3.70;3.40;;;17.60;73.90;;;;;;5033299;28;20436;-76
2023/05/14 08:49:02;;;;;;;3.20;2.90;;;17.90;74.70;;;;;;5033298;28;20796;-77
2023/05/14 08:51:32;;;;;;;4.00;3.20;;;18.10;73.70;;;;;;5034640;28;20467;-77
2023/05/14 08:54:02;;;;;;;4.40;3.87;;;18.30;73.30;;;;;;5037055;28;20474;-76
2023/05/14 08:56:32;;;;;;;4.20;3.80;;;18.40;73.30;;;;;;5037225;28;20447;-77
2023/05/14 08:58:58;;;;;;;3.67;3.37;;;18.50;71.90;;;;;;5036828;28;20956;-75
2023/05/14 09:01:25;;;;;;;4.27;3.87;;;18.70;70.70;;;;;;5037006;28;20485;-77
2023/05/14 09:03:54;;;;;;;3.87;3.33;;;18.60;70.80;;;;;;5036810;28;20447;-77
2023/05/14 09:06:22;;;;;;;4.10;3.70;;;18.80;70.60;;;;;;5036860;28;20451;-76
2023/05/14 09:08:50;;;;;;;4.17;3.00;;;19.00;70.60;;;;;;5036784;28;20493;-77
2023/05/14 09:11:17;;;;;;;3.73;3.37;;;18.90;72.20;;;;;;5036702;28;20468;-76
2023/05/14 09:13:43;;;;;;;4.27;3.90;;;18.30;71.10;;;;;;5036743;28;20474;-76
2023/05/14 09:16:10;;;;;;;3.20;2.90;;;18.00;73.10;;;;;;5036355;28;20949;-77
2023/05/14 09:18:37;;;;;;;4.37;4.07;;;17.90;73.70;;;;;;5036643;28;20447;-76
2023/05/14 09:21:04;;;;;;;3.63;3.33;;;17.60;74.00;;;;;;5036176;28;20976;-76
2023/05/14 09:23:33;;;;;;;3.60;3.30;;;17.90;74.50;;;;;;5036609;28;20480;-76
2023/05/14 09:26:04;;;;;;;4.40;3.73;;;17.90;72.20;;;;;;5036444;28;20575;-76
2023/05/14 09:28:31;;;;;;;3.70;3.40;;;17.70;72.00;;;;;;5036692;28;20852;-76
2023/05/14 09:30:57;;;;;;;4.33;3.93;;;17.80;72.70;;;;;;5036031;28;20467;-74
2023/05/14 09:33:28;;;;;;;3.30;3.00;;;17.80;72.40;;;;;;5036063;28;20447;-77
2023/05/14 09:35:58;;;;;;;3.37;3.07;;;17.50;72.60;;;;;;5036296;28;20530;-77
2023/05/14 09:38:28;;;;;;;3.53;3.23;;;17.30;73.00;;;;;;5037332;28;20451;-77
2023/05/14 09:40:55;;;;;;;3.67;3.30;;;17.50;72.80;;;;;;5036333;28;20554;-76
2023/05/14 09:43:23;;;;;;;3.80;3.50;;;17.60;72.90;;;;;;5036354;28;20527;-77
2023/05/14 09:45:50;;;;;;;4.57;4.17;;;17.50;72.90;;;;;;5036699;28;20479;-76
2023/05/14 09:48:17;;;;;;;4.00;3.23;;;17.40;73.10;;;;;;5036303;28;20493;-78
2023/05/14 09:50:44;;;;;;;4.57;4.17;;;17.30;73.60;;;;;;5036023;28;20557;-77
2023/05/14 09:53:12;;;;;;;3.20;2.70;;;17.30;74.60;;;;;;5035939;28;20443;-74
2023/05/14 09:55:38;;;;;;;3.87;3.57;;;17.40;74.00;;;;;;5035766;28;20498;-75
2023/05/14 09:58:05;;;;;;;3.73;3.43;;;17.50;73.20;;;;;;5035984;28;20447;-74
2023/05/14 10:00:34;;;;;;;3.70;3.40;;;17.30;73.60;;;;;;5035414;28;20447;-76
2023/05/14 10:03:04;;;;;;;3.37;3.07;;;17.20;74.20;;;;;;5035474;28;20432;-74
2023/05/14 10:05:34;;;;;;;3.50;3.20;;;17.30;73.00;;;;;;5036164;28;20926;-74
2023/05/14 10:08:05;;;;;;;3.50;3.20;;;17.20;73.00;;;;;;5035505;28;20998;-74
2023/05/14 10:10:35;;;;;;;3.60;3.30;;;17.50;72.40;;;;;;5035523;28;20423;-74
2023/05/14 10:13:06;;;;;;;4.60;3.00;;;17.50;72.20;;;;;;5035522;28;20456;-74
2023/05/14 10:15:42;;;;;;;3.80;3.47;;;17.70;72.90;;;;;;5035499;28;20514;-74
2023/05/14 10:18:12;;;;;;;3.43;3.13;;;17.80;71.80;;;;;;5036292;28;20427;-74
2023/05/14 10:20:40;;;;;;;4.30;3.40;;;17.70;72.60;;;;;;5035368;28;20483;-74
2023/05/14 10:23:07;;;;;;;3.90;3.50;;;17.70;71.60;;;;;;5035247;28;20910;-76
2023/05/14 10:25:34;;;;;;;4.07;3.77;;;17.70;71.10;;;;;;5035240;28;20487;-75
2023/05/14 10:28:02;;;;;;;4.20;3.80;;;17.50;71.60;;;;;;5035204;28;20537;-74
2023/05/14 10:30:29;;;;;;;4.03;3.73;;;17.30;72.50;;;;;;5035070;28;20501;-74
2023/05/14 10:33:13;;;;;;;3.20;2.90;;;17.30;72.40;;;;;;5035182;28;20450;-75
2023/05/14 10:36:00;;;;;;;4.40;3.40;;;17.30;71.80;;;;;;5035213;28;20428;-75
2023/05/14 10:38:28;;;;;;;2.80;2.50;;;17.20;72.50;;;;;;5035124;28;20435;-75
2023/05/14 10:40:57;;;;;;;3.20;2.50;;;17.40;71.70;;;;;;5034942;28;20467;-74
2023/05/14 10:43:26;;;;;;;4.27;2.90;;;17.30;71.90;;;;;;5035045;28;20534;-75
2023/05/14 10:45:53;;;;;;;3.97;3.67;;;17.60;72.00;;;;;;5034492;28;20510;-75
2023/05/14 10:48:21;;;;;;;2.90;2.67;;;17.90;71.10;;;;;;5034870;28;20448;-75
2023/05/14 10:50:48;;;;;;;3.33;3.03;;;18.00;70.90;;;;;;5034772;28;20881;-74
2023/05/14 10:53:15;;;;;;;3.33;3.03;;;18.10;70.50;;;;;;5034732;28;20482;-75
2023/05/14 10:55:43;;;;;;;3.70;3.40;;;18.50;70.90;;;;;;5034730;28;20444;-75
2023/05/14 10:58:10;;;;;;;3.03;2.67;;;18.90;69.30;;;;;;5034682;28;20455;-76
2023/05/14 11:00:38;;;;;;;3.13;2.83;;;19.10;69.50;;;;;;5034119;28;20933;-75
2023/05/14 11:03:06;;;;;;;2.97;2.53;;;19.40;70.20;;;;;;5034624;28;20523;-75
2023/05/14 11:05:36;;;;;;;3.97;3.00;;;19.80;68.00;;;;;;5034657;28;20487;-79
2023/05/14 11:08:07;;;;;;;3.23;2.37;;;20.00;65.30;;;;;;5035336;28;20487;-77
2023/05/14 11:10:35;;;;;;;2.40;2.20;;;20.10;65.30;;;;;;5035080;28;20432;-77
2023/05/14 11:13:02;;;;;;;2.80;2.23;;;20.30;65.50;;;;;;5034980;28;20482;-76
2023/05/14 11:15:29;;;;;;;2.20;2.00;;;20.40;64.90;;;;;;5034419;28;20901;-77
2023/05/14 11:17:55;;;;;;;3.17;2.87;;;20.60;64.50;;;;;;5034862;28;20940;-76
2023/05/14 11:20:22;;;;;;;2.80;2.50;;;20.90;64.30;;;;;;5035501;28;20494;-75
2023/05/14 11:22:51;;;;;;;2.97;2.27;;;20.50;63.50;;;;;;5034500;28;20452;-75
2023/05/14 11:25:18;;;;;;;2.63;2.10;;;20.50;64.20;;;;;;5034178;28;20569;-76
2023/05/14 11:27:46;;;;;;;2.90;2.60;;;20.40;64.00;;;;;;5034828;28;20941;-78
2023/05/14 11:30:15;;;;;;;2.97;2.57;;;20.30;64.20;;;;;;5035549;28;20447;-76
2023/05/14 11:32:42;;;;;;;3.67;2.43;;;20.50;65.50;;;;;;5034120;28;20533;-76
2023/05/14 11:35:09;;;;;;;3.30;2.67;;;20.60;66.90;;;;;;5035601;28;20521;-76
2023/05/14 11:37:35;;;;;;;3.10;2.60;;;20.60;64.70;;;;;;5034504;28;20459;-75
2023/05/14 11:40:09;;;;;;;3.03;2.73;;;20.70;64.50;;;;;;5034197;28;20451;-76
2023/05/14 11:42:37;;;;;;;3.17;2.50;;;20.70;65.20;;;;;;5033872;28;20820;-74
2023/05/14 11:45:04;;;;;;;2.77;2.47;;;21.00;64.90;;;;;;5033558;28;20957;-74
2023/05/14 11:47:31;;;;;;;3.10;2.80;;;20.50;64.20;;;;;;5034471;28;20516;-76
2023/05/14 11:49:59;;;;;;;3.17;2.87;;;19.80;65.90;;;;;;5034171;28;20455;-75
2023/05/14 11:52:26;;;;;;;3.43;3.13;;;19.40;66.90;;;;;;5033793;28;20555;-75
2023/05/14 11:54:52;;;;;;;3.50;3.20;;;18.70;68.50;;;;;;5033806;28;20501;-76
2023/05/14 11:57:22;;;;;;;3.73;3.43;;;18.40;70.30;;;;;;5033852;28;20443;-76
2023/05/14 11:59:54;;;;;;;3.37;3.07;;;18.40;70.60;;;;;;5033786;28;20454;-77
2023/05/14 12:02:21;;;;;;;3.87;2.57;;;18.60;70.40;;;;;;5033495;28;20479;-76
2023/05/14 12:04:50;;;;;;;2.47;2.27;;;18.40;68.60;;;;;;5033575;28;21008;-76
2023/05/14 12:07:17;;;;;;;2.57;2.37;;;18.40;69.60;;;;;;5033922;28;20526;-77
2023/05/14 12:09:48;;;;;;;2.60;2.40;;;18.80;71.10;;;;;;5033643;28;20478;-76
2023/05/14 12:12:15;;;;;;;2.77;2.23;;;19.30;66.70;;;;;;5033503;28;20478;-76
2023/05/14 12:14:44;;;;;;;3.40;2.70;;;19.70;65.30;;;;;;5033554;28;20510;-77
2023/05/14 12:17:15;;;;;;;2.30;1.97;;;19.90;64.60;;;;;;5033202;28;20534;-76
2023/05/14 12:19:43;;;;;;;2.70;2.40;;;20.10;64.70;;;;;;5033580;28;20452;-76
2023/05/14 12:22:11;;;;;;;2.80;2.50;;;20.50;65.30;;;;;;5033224;28;20464;-76
2023/05/14 12:24:38;;;;;;;2.30;2.00;;;20.50;64.50;;;;;;5033198;28;20447;-77
2023/05/14 12:27:05;;;;;;;2.70;2.40;;;20.40;64.20;;;;;;5032857;28;20487;-75
2023/05/14 12:29:36;;;;;;;3.20;2.90;;;20.30;64.40;;;;;;5033158;28;20546;-76
2023/05/14 12:32:08;;;;;;;3.27;2.10;;;19.90;65.90;;;;;;5033307;28;20498;-75
2023/05/14 12:34:35;;;;;;;3.10;2.67;;;19.70;66.90;;;;;;5033221;28;20439;-76
2023/05/14 12:37:02;;;;;;;2.80;2.60;;;19.40;67.50;;;;;;5032928;28;20992;-75
2023/05/14 12:39:32;;;;;;;3.47;3.17;;;19.40;70.00;;;;;;5033134;28;20447;-77
2023/05/14 12:41:58;;;;;;;3.37;2.83;;;19.20;70.80;;;;;;5032790;28;20980;-75
2023/05/14 12:44:25;;;;;;;3.37;2.67;;;19.30;70.40;;;;;;5032774;28;20957;-76
2023/05/14 12:46:52;;;;;;;2.90;2.60;;;19.30;70.60;;;;;;5033000;28;20487;-76
2023/05/14 12:49:20;;;;;;;2.60;2.40;;;19.10;70.20;;;;;;5033140;28;20451;-75
2023/05/14 12:51:47;;;;;;;2.50;2.30;;;19.00;70.60;;;;;;5033450;28;20471;-76
2023/05/14 12:54:14;;;;;;;2.40;1.97;;;18.90;70.30;;;;;;5032989;28;20443;-75
2023/05/14 12:56:41;;;;;;;2.67;2.20;;;19.00;69.60;;;;;;5032818;28;20972;-76
2023/05/14 12:59:08;;;;;;;2.57;2.20;;;18.70;68.80;;;;;;5032898;28;20493;-75
2023/05/14 13:01:36;;;;;;;2.53;2.17;;;18.60;68.90;;;;;;5032752;28;20540;-76
2023/05/14 13:04:03;;;;;;;2.60;2.30;;;18.40;68.20;;;;;;5032921;28;20448;-76
2023/05/14 13:06:31;;;;;;;3.20;2.80;;;18.00;69.10;;;;;;5032723;28;20475;-75
2023/05/14 13:09:00;;;;;;;2.50;2.20;;;18.10;70.20;;;;;;5032817;28;20530;-76
2023/05/14 13:11:30;;;;;;;2.40;1.90;;;18.30;70.40;;;;;;5032711;28;20471;-76
2023/05/14 13:13:57;;;;;;;2.20;1.80;;;18.70;69.00;;;;;;5032783;28;20455;-76
2023/05/14 13:16:24;;;;;;;2.50;2.10;;;19.40;69.30;;;;;;5032733;28;20440;-76
2023/05/14 13:18:51;;;;;;;2.90;2.40;;;19.30;66.40;;;;;;5032422;28;20451;-76
2023/05/14 13:21:17;;;;;;;2.73;2.10;;;19.10;67.00;;;;;;5032635;28;20526;-76
2023/05/14 13:23:45;;;;;;;2.20;1.90;;;18.90;67.40;;;;;;5032782;28;20458;-76
2023/05/14 13:26:12;;;;;;;4.67;2.30;;;18.90;67.60;;;;;;5032722;28;20482;-76
2023/05/14 13:28:39;;;;;;;2.43;2.10;;;18.80;67.30;;;;;;5032381;28;20543;-75
2023/05/14 13:31:08;;;;;;;2.23;1.97;;;18.80;68.00;;;;;;5032337;28;20896;-74
2023/05/14 13:33:35;;;;;;;2.00;1.77;;;18.90;67.90;;;;;;5032584;28;20478;-75
2023/05/14 13:36:03;;;;;;;2.30;1.90;;;19.20;66.70;;;;;;5032381;28;20827;-75
2023/05/14 13:38:30;;;;;;;2.00;1.53;;;19.40;67.60;;;;;;5034032;28;20472;-75
2023/05/14 13:41:01;;;;;;;2.37;1.90;;;19.70;65.10;;;;;;5036045;28;20467;-74
2023/05/14 13:43:28;;;;;;;2.50;1.90;;;20.10;64.10;;;;;;5036244;28;20440;-74
2023/05/14 13:45:55;;;;;;;2.10;1.70;;;20.00;63.70;;;;;;5036026;28;20483;-75
2023/05/14 13:48:22;;;;;;;2.10;1.60;;;20.10;64.50;;;;;;5036101;28;20531;-75
2023/05/14 13:50:50;;;;;;;2.20;1.63;;;19.90;63.60;;;;;;5035995;28;20467;-74
2023/05/14 13:53:17;;;;;;;2.20;1.80;;;19.70;64.60;;;;;;5036014;28;20458;-75
2023/05/14 13:55:44;;;;;;;2.13;1.73;;;19.50;66.10;;;;;;5035982;28;20466;-74
2023/05/14 13:58:12;;;;;;;2.10;1.60;;;19.60;67.10;;;;;;5035765;28;20443;-75
2023/05/14 14:00:39;;;;;;;3.57;1.83;;;19.60;65.30;;;;;;5035437;28;20929;-76
2023/05/14 14:03:06;;;;;;;3.10;1.83;;;19.70;64.70;;;;;;5035754;28;20435;-76
2023/05/14 14:05:33;;;;;;;2.20;1.93;;;19.60;65.30;;;;;;5035596;28;20472;-76
2023/05/14 14:08:00;;;;;;;2.10;1.43;;;19.60;65.80;;;;;;5035721;28;20521;-75
2023/05/14 14:10:26;;;;;;;2.27;1.90;;;19.70;65.50;;;;;;5035606;28;20502;-75
2023/05/14 14:12:53;;;;;;;2.37;1.87;;;19.80;65.90;;;;;;5035562;28;20448;-75
2023/05/14 14:15:21;;;;;;;2.20;2.00;;;19.60;65.40;;;;;;5035466;28;20501;-75
2023/05/14 14:17:48;;;;;;;2.30;1.90;;;19.70;65.00;;;;;;5035329;28;20444;-75
2023/05/14 14:20:15;;;;;;;2.30;2.10;;;19.50;65.20;;;;;;5035485;28;20455;-76
2023/05/14 14:22:43;;;;;;;2.60;1.80;;;19.30;65.20;;;;;;5035373;28;20517;-75
2023/05/14 14:25:11;;;;;;;2.60;1.90;;;19.10;66.10;;;;;;5035458;28;20483;-75
2023/05/14 14:27:38;;;;;;;2.50;2.10;;;19.30;66.90;;;;;;5035189;28;20489;-75
2023/05/14 14:30:06;;;;;;;2.27;1.90;;;19.40;65.70;;;;;;5035236;28;20448;-74
2023/05/14 14:32:35;;;;;;;2.33;1.87;;;19.00;66.20;;;;;;5034991;28;20483;-74
2023/05/14 14:35:02;;;;;;;2.70;2.20;;;19.00;66.50;;;;;;5034802;28;20849;-74
2023/05/14 14:37:29;;;;;;;2.20;1.80;;;19.00;66.60;;;;;;5035107;28;20455;-75
2023/05/14 14:39:56;;;;;;;2.20;1.77;;;19.00;66.00;;;;;;5034741;28;20827;-74
2023/05/14 14:42:23;;;;;;;2.13;1.57;;;19.00;65.80;;;;;;5034734;28;20903;-74
2023/05/14 14:44:49;;;;;;;2.30;1.80;;;18.90;65.60;;;;;;5035134;28;20871;-74
2023/05/14 14:47:16;;;;;;;2.37;1.70;;;19.10;64.30;;;;;;5034606;28;21022;-74
2023/05/14 14:49:44;;;;;;;1.87;1.40;;;19.10;64.50;;;;;;5034577;28;20458;-74
2023/05/14 14:52:10;;;;;;;2.00;1.47;;;19.30;63.40;;;;;;5034739;28;20518;-74
2023/05/14 14:54:37;;;;;;;2.13;1.60;;;19.30;65.10;;;;;;5034814;28;20494;-74
2023/05/14 14:57:04;;;;;;;2.10;1.40;;;19.40;63.20;;;;;;5034705;28;20502;-74
2023/05/14 14:59:31;;;;;;;2.00;1.57;;;19.60;62.40;;;;;;5034347;28;20866;-76
2023/05/14 15:01:58;;;;;;;2.27;1.53;;;19.70;62.30;;;;;;5034467;28;20533;-74
2023/05/14 15:04:24;;;;;;;2.10;1.70;;;19.90;61.70;;;;;;5034547;28;20448;-74
2023/05/14 15:06:52;;;;;;;2.27;1.50;;;20.10;62.50;;;;;;5034541;28;20525;-75
2023/05/14 15:09:19;;;;;;;2.20;1.60;;;20.00;62.10;;;;;;5034446;28;20505;-75
2023/05/14 15:11:46;;;;;;;2.20;1.77;;;20.00;62.00;;;;;;5034441;28;20467;-74
2023/05/14 15:14:12;;;;;;;2.30;1.60;;;19.90;62.90;;;;;;5034483;28;20507;-74
2023/05/14 15:16:39;;;;;;;2.40;1.80;;;19.90;62.80;;;;;;5034389;28;20531;-75
2023/05/14 15:19:06;;;;;;;2.00;1.30;;;19.80;62.10;;;;;;5034336;28;20452;-75
2023/05/14 15:21:33;;;;;;;2.20;1.90;;;19.70;62.20;;;;;;5034569;28;20529;-75
2023/05/14 15:24:03;;;;;;;2.03;1.50;;;19.80;62.60;;;;;;5034206;28;20944;-74
2023/05/14 15:26:29;;;;;;;2.03;1.27;;;20.00;63.00;;;;;;5034341;28;20475;-75
2023/05/14 15:28:57;;;;;;;1.90;1.30;;;20.20;61.10;;;;;;5034248;28;20494;-75
2023/05/14 15:31:24;;;;;;;2.07;1.57;;;20.10;60.30;;;;;;5034203;28;20477;-75
2023/05/14 15:33:51;;;;;;;2.10;1.60;;;20.20;61.00;;;;;;5034125;28;20444;-74
2023/05/14 15:36:17;;;;;;;2.00;1.50;;;20.40;60.20;;;;;;5034135;28;20443;-75
2023/05/14 15:38:44;;;;;;;2.00;1.50;;;20.40;59.80;;;;;;5033714;28;20517;-75
2023/05/14 15:41:12;;;;;;;1.90;1.23;;;20.40;61.30;;;;;;5033940;28;20467;-74
2023/05/14 15:43:39;;;;;;;2.00;1.53;;;20.60;60.40;;;;;;5033960;28;20529;-74
2023/05/14 15:46:05;;;;;;;2.03;1.30;;;20.60;60.90;;;;;;5033843;28;20813;-75
2023/05/14 15:48:32;;;;;;;2.10;1.57;;;20.50;60.80;;;;;;5033894;28;20443;-75
2023/05/14 15:50:59;;;;;;;2.73;1.67;;;20.40;61.90;;;;;;5033435;28;21038;-75
2023/05/14 15:53:26;;;;;;;1.80;1.10;;;20.30;63.00;;;;;;5033858;28;20451;-75
2023/05/14 15:55:52;;;;;;;2.03;1.50;;;20.00;62.50;;;;;;5033775;28;20526;-75
2023/05/14 15:58:20;;;;;;;3.20;1.30;;;19.60;63.30;;;;;;5033687;28;20443;-75
2023/05/14 16:00:47;;;;;;;1.90;1.30;;;19.30;63.60;;;;;;5032704;28;20480;-75
2023/05/14 16:03:13;;;;;;;2.30;1.90;;;19.00;64.90;;;;;;5034167;28;20440;-76
2023/05/14 16:05:41;;;;;;;2.20;1.70;;;18.80;68.50;;;;;;5034220;28;20498;-77
2023/05/14 16:08:08;;;;;;;2.13;1.70;;;18.70;68.10;;;;;;5034526;28;20487;-76
2023/05/14 16:10:34;;;;;;;2.30;1.80;;;18.60;67.60;;;;;;5033413;28;20460;-76
2023/05/14 16:13:01;;;;;;;2.10;1.70;;;18.30;68.50;;;;;;5033445;28;20447;-75
2023/05/14 16:15:29;;;;;;;2.40;1.63;;;18.00;70.20;;;;;;5033837;28;20447;-75
2023/05/14 16:17:56;;;;;;;2.07;1.57;;;18.00;70.80;;;;;;5033856;28;20447;-74
2023/05/14 16:20:22;;;;;;;2.50;1.63;;;18.00;70.80;;;;;;5033720;28;20451;-74
2023/05/14 16:22:49;;;;;;;2.00;1.60;;;18.00;70.30;;;;;;5032932;28;20899;-74
2023/05/14 16:25:17;;;;;;;1.97;1.40;;;18.00;70.40;;;;;;5032833;28;20823;-73
2023/05/14 16:27:44;;;;;;;2.00;1.33;;;18.20;69.80;;;;;;5033192;28;20533;-74
2023/05/14 16:30:11;;;;;;;2.20;1.37;;;18.40;69.20;;;;;;5033237;28;20443;-74
2023/05/14 16:32:40;;;;;;;2.57;1.87;;;18.20;69.30;;;;;;5033138;28;20525;-74
2023/05/14 16:35:07;;;;;;;3.23;1.70;;;18.30;69.10;;;;;;5032783;28;20959;-74
2023/05/14 16:37:34;;;;;;;2.20;1.60;;;18.30;69.10;;;;;;5033582;28;20847;-73
2023/05/14 16:40:01;;;;;;;2.00;1.70;;;18.40;68.90;;;;;;5033094;28;20456;-73
2023/05/14 16:42:28;;;;;;;2.30;1.50;;;18.60;68.60;;;;;;5033019;28;20475;-74
2023/05/14 16:44:54;;;;;;;2.10;1.67;;;18.70;68.30;;;;;;5033045;28;20444;-74
2023/05/14 16:47:21;;;;;;;2.30;1.80;;;18.80;67.50;;;;;;5032944;28;20487;-74
2023/05/14 16:49:49;;;;;;;1.90;1.40;;;19.00;67.90;;;;;;5033005;28;20448;-73